Plano's Hourly Summary for Sunday, May 13, 2018
Hour Temp
(f)
RH
(%)
Solar Rad.
(MJ/m2)
Rainfall
(in)
Wind
(mph)
5/13/2018 12:00 AM 79 57 0 0 3.26
5/13/2018 1:00 AM 78 62 0 0 4.02
5/13/2018 2:00 AM 76 67 0 0 4.17
5/13/2018 3:00 AM 75 72 0 0 4.09
5/13/2018 4:00 AM 74 75 0 0 4.13
5/13/2018 5:00 AM 73 77 0 0 3.25
5/13/2018 6:00 AM 72 78 0 0 3.43
5/13/2018 7:00 AM 72 80 0.03 0 3.3
5/13/2018 8:00 AM 72 77 0.36 0 2.37
5/13/2018 9:00 AM 74 72 0.88 0 4.26
5/13/2018 10:00 AM 76 65 1.38 0 4.2
5/13/2018 11:00 AM 79 61 1.49 0 4.51
5/13/2018 12:00 PM 81 56 2.46 0 4.41
5/13/2018 1:00 PM 82 52 2.03 0 5.09
5/13/2018 2:00 PM 83 51 1.96 0 4.82
5/13/2018 3:00 PM 85 50 2.07 0 4.49
5/13/2018 4:00 PM 86 47 1.96 0 4.8
5/13/2018 5:00 PM 86 45 1.34 0 5.05
5/13/2018 6:00 PM 87 45 1.36 0 4.82
5/13/2018 7:00 PM 86 45 0.62 0 4.23
5/13/2018 8:00 PM 84 49 0.23 0 4.08
5/13/2018 9:00 PM 83 51 0.01 0 2.89
5/13/2018 10:00 PM 82 55 0 0 2.44
5/13/2018 11:00 PM 81 57 0 0 2.91
Data Summary 79 60 18.18 0.00 3.96